Marshalls Creek, Pennsylvania
Current Conditions -  °F | °C
As of 12:53 PM on Tuesday 21 Oct 2014 (Local Time) from KMPO Reporting Station
Overcast Overcast  
Wind Chill: 11°   Ceiling: 1300
Heat Index: 11°   Visibility: 10mi
Dew Point:   Wind: 0mph
Humidity: 80%   Direction: NA
Pressure: 29.86"   Gusts: NA
Location:  41.04°N, 75.13°W
Report Text: KMPO 211653Z AUTO 00000KT 10SM OVC013 11/08 A2986 RMK AO2 SLP117 T01110078 TSNO PNO $
Loading
Personal Weather Stations






























Interactive Weather Map
Tropical Storm Tracking
New forecast layout! Learn more

10-Day Weather Forecast

Advertisements
Track Severe Weather on mobile